createdAt,value
2023-03-11T00:00:03.288Z,10.26
2023-03-11T00:03:05.342Z,10.21
2023-03-11T00:06:06.304Z,10.25
2023-03-11T00:09:06.304Z,10.24
2023-03-11T00:12:06.317Z,10.23
2023-03-11T00:15:06.362Z,10.22
2023-03-11T00:18:06.318Z,10.19
2023-03-11T00:21:06.343Z,10.18
2023-03-11T00:24:07.325Z,10.11
2023-03-11T00:27:07.328Z,10.14
2023-03-11T00:30:07.321Z,10.11
2023-03-11T00:33:09.348Z,9.94
2023-03-11T00:36:09.331Z,10.02
2023-03-11T00:39:09.338Z,9.94
2023-03-11T00:42:09.277Z,9.81
2023-03-11T00:45:09.315Z,9.68
2023-03-11T00:48:09.292Z,9.57
2023-03-11T00:51:09.306Z,9.48
2023-03-11T00:54:09.329Z,9.43
2023-03-11T00:57:09.290Z,9.36
2023-03-11T01:00:09.293Z,9.15
2023-03-11T01:03:09.278Z,9.26
2023-03-11T01:06:10.305Z,9.23
2023-03-11T01:09:11.321Z,9.20
2023-03-11T01:12:11.308Z,9.22
2023-03-11T01:15:11.292Z,9.19
2023-03-11T01:18:11.292Z,9.18
2023-03-11T01:21:11.284Z,9.18
2023-03-11T01:24:11.340Z,9.16
2023-03-11T01:27:11.293Z,9.19
2023-03-11T01:30:11.312Z,9.21
2023-03-11T01:33:11.300Z,9.20
2023-03-11T01:36:11.282Z,9.20
2023-03-11T01:39:11.331Z,9.18
2023-03-11T01:42:11.303Z,9.20
2023-03-11T01:45:11.290Z,9.13
2023-03-11T01:48:11.339Z,9.02
2023-03-11T01:51:11.296Z,9.15
2023-03-11T01:54:13.303Z,9.16
2023-03-11T01:57:13.326Z,9.13
2023-03-11T02:00:14.318Z,9.13
2023-03-11T02:03:16.392Z,9.15
2023-03-11T02:06:18.324Z,9.11
2023-03-11T02:09:19.308Z,9.15
2023-03-11T02:12:20.331Z,9.14
2023-03-11T02:15:21.315Z,9.08
2023-03-11T02:18:25.294Z,9.03
2023-03-11T02:21:42.326Z,9.13
2023-03-11T02:24:49.332Z,9.07
2023-03-11T02:27:52.291Z,9.08
2023-03-11T02:30:54.335Z,9.10
2023-03-11T02:33:55.307Z,9.06
2023-03-11T02:36:56.306Z,9.08
2023-03-11T02:40:02.299Z,9.08
2023-03-11T02:43:04.338Z,9.07
2023-03-11T02:46:04.290Z,9.04
2023-03-11T02:49:05.341Z,9.02
2023-03-11T02:52:05.350Z,8.94
2023-03-11T02:55:05.334Z,8.97
2023-03-11T02:58:05.327Z,9.03
2023-03-11T03:01:05.342Z,9.00
2023-03-11T03:04:05.304Z,9.00
2023-03-11T03:07:05.280Z,8.98
2023-03-11T03:10:05.292Z,8.95
2023-03-11T03:13:05.313Z,8.92
2023-03-11T03:16:05.417Z,8.88
2023-03-11T03:19:05.274Z,8.88
2023-03-11T03:22:05.338Z,8.80
2023-03-11T03:25:06.282Z,8.85
2023-03-11T03:28:06.319Z,8.75
2023-03-11T03:31:07.345Z,8.83
2023-03-11T03:34:07.311Z,8.83
2023-03-11T03:37:07.292Z,8.86
2023-03-11T03:40:07.281Z,8.88
2023-03-11T03:43:07.298Z,8.88
2023-03-11T03:46:13.332Z,8.89
2023-03-11T03:49:13.322Z,8.93
2023-03-11T03:52:13.326Z,8.92
2023-03-11T03:55:13.304Z,8.78
2023-03-11T04:01:58.354Z,8.93
2023-03-11T04:04:58.287Z,8.94
2023-03-11T04:07:58.339Z,8.87
2023-03-11T04:11:00.294Z,8.81
2023-03-11T04:14:01.346Z,8.73
2023-03-11T04:17:01.305Z,8.55
2023-03-11T04:20:01.324Z,8.61
2023-03-11T04:23:01.290Z,8.49
2023-03-11T04:26:01.336Z,8.45
2023-03-11T04:29:02.333Z,8.35
2023-03-11T04:32:03.278Z,8.43
2023-03-11T04:35:04.321Z,8.27
2023-03-11T04:38:04.326Z,8.38
2023-03-11T04:41:04.293Z,8.39
2023-03-11T04:44:04.313Z,8.40
2023-03-11T04:47:04.286Z,8.37
2023-03-11T04:50:04.280Z,8.46
2023-03-11T04:53:04.290Z,8.42
2023-03-11T04:56:04.318Z,8.34
2023-03-11T04:59:04.313Z,8.31
2023-03-11T05:02:04.272Z,8.32
2023-03-11T05:05:05.298Z,8.28
2023-03-11T05:08:05.320Z,8.21
2023-03-11T05:11:06.266Z,8.18
2023-03-11T05:14:07.307Z,8.15
2023-03-11T05:17:07.320Z,8.06
2023-03-11T05:20:07.337Z,7.98
2023-03-11T05:23:07.504Z,7.93
2023-03-11T05:26:07.335Z,7.99
2023-03-11T05:29:07.318Z,8.00
2023-03-11T05:32:07.342Z,8.16
2023-03-11T05:35:08.291Z,8.21
2023-03-11T05:38:08.307Z,8.20
2023-03-11T05:41:08.307Z,8.23
2023-03-11T05:44:08.362Z,8.12
2023-03-11T05:47:09.337Z,8.18
2023-03-11T05:50:09.315Z,8.08
2023-03-11T05:53:10.303Z,7.99
2023-03-11T05:56:14.289Z,7.86
2023-03-11T05:59:16.594Z,7.80
2023-03-11T06:02:17.293Z,7.83
2023-03-11T06:05:17.458Z,7.81
2023-03-11T06:08:17.325Z,7.89
2023-03-11T06:11:22.293Z,7.90
2023-03-11T06:14:25.281Z,7.89
2023-03-11T06:17:27.357Z,7.95
2023-03-11T06:20:28.357Z,7.99
2023-03-11T06:23:28.350Z,8.25
2023-03-11T06:26:31.234Z,8.43
2023-03-11T06:29:33.271Z,8.64
2023-03-11T06:32:33.338Z,8.77
2023-03-11T06:35:34.306Z,8.84
2023-03-11T06:38:36.269Z,8.83
2023-03-11T06:41:37.321Z,8.87
2023-03-11T06:44:37.336Z,9.04
2023-03-11T06:47:37.320Z,9.20
2023-03-11T06:50:37.297Z,9.24
2023-03-11T06:53:37.337Z,9.25
2023-03-11T06:56:37.328Z,9.31
2023-03-11T06:59:37.279Z,9.27
2023-03-11T07:02:30.330Z,9.46
2023-03-11T07:05:09.433Z,9.56
2023-03-11T07:08:09.311Z,9.54
2023-03-11T07:11:24.343Z,9.31
2023-03-11T07:14:24.286Z,9.36
2023-03-11T07:17:24.297Z,9.91
2023-03-11T07:20:24.326Z,9.49
2023-03-11T07:23:24.295Z,9.52
2023-03-11T07:26:25.319Z,9.32
2023-03-11T07:29:25.332Z,9.37
2023-03-11T07:32:25.340Z,9.05
2023-03-11T07:35:25.312Z,8.88
2023-03-11T07:38:26.295Z,8.87
2023-03-11T07:41:27.371Z,9.01
2023-03-11T07:44:28.332Z,8.62
2023-03-11T07:47:28.299Z,8.43
2023-03-11T07:50:30.388Z,8.41
2023-03-11T07:53:31.270Z,8.33
2023-03-11T07:56:32.302Z,8.29
2023-03-11T07:59:33.320Z,8.27
2023-03-11T08:02:33.417Z,7.99
2023-03-11T08:05:33.291Z,8.17
2023-03-11T08:08:33.330Z,8.09
2023-03-11T08:11:33.315Z,8.14
2023-03-11T08:14:33.316Z,8.04
2023-03-11T08:17:33.294Z,8.21
2023-03-11T08:20:33.289Z,8.17
2023-03-11T08:23:33.305Z,7.86
2023-03-11T08:26:35.316Z,7.92
2023-03-11T08:29:35.321Z,7.98
2023-03-11T08:32:38.362Z,8.16
2023-03-11T08:35:38.300Z,8.00
2023-03-11T08:38:38.314Z,7.73
2023-03-11T08:41:38.313Z,7.74
2023-03-11T08:44:38.305Z,7.72
2023-03-11T08:47:38.312Z,7.52
2023-03-11T08:50:52.880Z,7.66
2023-03-11T08:53:54.306Z,7.73
2023-03-11T08:56:54.338Z,7.55
2023-03-11T08:59:54.290Z,7.41
2023-03-11T09:02:54.317Z,7.47
2023-03-11T09:05:54.337Z,7.32
2023-03-11T09:08:54.278Z,7.22
2023-03-11T09:11:54.297Z,7.28
2023-03-11T09:14:55.307Z,7.31
2023-03-11T09:17:55.315Z,7.30
2023-03-11T09:20:55.447Z,7.27
2023-03-11T09:23:55.298Z,7.43
2023-03-11T09:26:55.344Z,7.41
2023-03-11T09:29:55.286Z,7.34
2023-03-11T09:32:55.373Z,7.16
2023-03-11T09:35:55.404Z,7.56
2023-03-11T09:38:56.318Z,7.04
2023-03-11T09:42:09.292Z,6.87
2023-03-11T09:45:12.348Z,6.92
2023-03-11T09:48:48.297Z,6.70
2023-03-11T09:51:55.312Z,6.86
2023-03-11T09:55:04.290Z,6.62
2023-03-11T09:58:04.331Z,6.32
2023-03-11T10:01:04.328Z,6.52
2023-03-11T10:04:06.272Z,6.38
2023-03-11T10:07:06.300Z,6.46
2023-03-11T10:10:08.307Z,6.29
2023-03-11T10:13:17.295Z,6.79
2023-03-11T10:16:28.363Z,7.09
2023-03-11T10:19:58.295Z,7.03
2023-03-11T10:23:05.315Z,7.75
2023-03-11T10:26:24.342Z,8.31
2023-03-11T10:29:32.313Z,8.69
2023-03-11T10:32:52.388Z,7.92
2023-03-11T10:35:54.305Z,9.07
2023-03-11T10:38:58.287Z,11.12
2023-03-11T10:42:03.367Z,11.43
2023-03-11T10:45:03.301Z,13.16
2023-03-11T10:48:03.269Z,14.52
2023-03-11T10:51:11.281Z,11.87
2023-03-11T10:54:13.281Z,10.80
2023-03-11T10:57:08.313Z,10.61
2023-03-11T10:59:59.377Z,10.51
2023-03-11T11:03:08.316Z,9.42
2023-03-11T11:06:18.325Z,9.16
2023-03-11T11:09:21.270Z,9.57
2023-03-11T11:12:29.533Z,9.45
2023-03-11T11:15:56.308Z,9.41
2023-03-11T11:18:58.335Z,9.03
2023-03-11T11:21:56.292Z,8.92
2023-03-11T11:24:43.281Z,8.80
2023-03-11T11:27:43.318Z,8.27
2023-03-11T11:30:43.306Z,8.33
2023-03-11T11:33:47.341Z,8.03
2023-03-11T11:36:49.292Z,8.27
2023-03-11T11:40:01.332Z,8.22
2023-03-11T11:43:34.294Z,8.22
2023-03-11T11:46:56.310Z,8.37
2023-03-11T11:50:06.352Z,8.18
2023-03-11T11:53:39.320Z,8.02
2023-03-11T11:56:40.291Z,7.88
2023-03-11T11:59:40.305Z,7.99
2023-03-11T12:02:54.335Z,7.87
2023-03-11T12:06:03.385Z,7.75
2023-03-11T12:09:40.332Z,7.56
2023-03-11T12:12:46.292Z,7.65
2023-03-11T12:15:52.328Z,7.46
2023-03-11T12:18:57.275Z,7.24
2023-03-11T12:22:10.298Z,7.28
2023-03-11T12:25:31.302Z,7.45
2023-03-11T12:28:58.314Z,7.36
2023-03-11T12:31:59.317Z,7.34
2023-03-11T12:34:59.284Z,7.22
2023-03-11T12:37:59.270Z,7.12
2023-03-11T12:41:16.301Z,7.08
2023-03-11T12:44:19.330Z,6.99
2023-03-11T12:47:22.295Z,7.04
2023-03-11T12:50:51.328Z,6.97
2023-03-11T12:54:03.302Z,6.92
2023-03-11T12:57:12.270Z,6.89
2023-03-11T13:00:25.296Z,6.75
2023-03-11T13:03:37.324Z,6.70
2023-03-11T13:06:52.306Z,6.61
2023-03-11T13:09:52.328Z,6.51
2023-03-11T13:13:02.279Z,6.33
2023-03-11T13:16:02.387Z,5.70
2023-03-11T13:19:03.288Z,5.34
2023-03-11T13:22:06.282Z,5.27
2023-03-11T13:25:06.321Z,5.19
2023-03-11T13:28:36.333Z,5.17
2023-03-11T13:32:04.330Z,5.09
2023-03-11T13:35:46.354Z,4.94
2023-03-11T13:38:58.280Z,4.92
2023-03-11T13:41:58.292Z,4.97
2023-03-11T13:44:59.325Z,4.94
2023-03-11T13:48:00.286Z,5.30
2023-03-11T13:51:07.310Z,5.54
2023-03-11T13:54:14.344Z,5.83
2023-03-11T13:57:16.292Z,5.88
2023-03-11T14:00:30.296Z,6.13
2023-03-11T14:03:32.291Z,5.99
2023-03-11T14:06:33.305Z,5.87
2023-03-11T14:09:34.299Z,5.42
2023-03-11T14:12:34.297Z,5.45
2023-03-11T14:15:39.337Z,5.27
2023-03-11T14:18:42.287Z,5.11
2023-03-11T14:21:42.334Z,5.14
2023-03-11T14:24:43.311Z,4.96
2023-03-11T14:27:43.330Z,4.95
2023-03-11T14:30:45.315Z,4.99
2023-03-11T14:33:45.324Z,5.02
2023-03-11T14:36:59.325Z,4.90
2023-03-11T14:39:59.283Z,4.77
2023-03-11T14:43:00.320Z,4.59
2023-03-11T14:46:00.311Z,4.57
2023-03-11T14:48:53.404Z,4.48
2023-03-11T14:51:53.275Z,4.42
2023-03-11T14:54:53.310Z,4.30
2023-03-11T14:57:58.300Z,4.09
2023-03-11T15:01:28.334Z,4.10
2023-03-11T15:04:39.324Z,4.12
2023-03-11T15:07:39.296Z,4.07
2023-03-11T15:10:39.298Z,4.00
2023-03-11T15:13:39.266Z,4.02
2023-03-11T15:16:50.331Z,3.96
2023-03-11T15:19:50.323Z,3.97
2023-03-11T15:22:52.276Z,3.99
2023-03-11T15:25:52.285Z,4.02
2023-03-11T15:28:52.283Z,3.99
2023-03-11T15:31:55.289Z,4.00
2023-03-11T15:34:55.282Z,4.05
2023-03-11T15:37:55.292Z,4.04
2023-03-11T15:41:07.285Z,3.87
2023-03-11T15:44:09.287Z,4.05
2023-03-11T15:47:09.282Z,3.98
2023-03-11T15:50:15.144Z,3.98
2023-03-11T15:53:20.310Z,3.86
2023-03-11T15:56:27.291Z,3.92
2023-03-11T15:59:29.290Z,3.95
2023-03-11T16:02:39.322Z,3.94
2023-03-11T16:05:39.285Z,3.89
2023-03-11T16:08:39.308Z,3.98
2023-03-11T16:11:39.287Z,4.04
2023-03-11T16:14:39.264Z,4.04
2023-03-11T16:17:49.452Z,4.02
2023-03-11T16:20:51.267Z,3.84
2023-03-11T16:23:52.416Z,4.06
2023-03-11T16:26:52.309Z,4.05
2023-03-11T16:29:52.309Z,4.04
2023-03-11T16:32:52.279Z,4.04
2023-03-11T16:35:52.333Z,3.96
2023-03-11T16:39:03.804Z,4.01
2023-03-11T16:42:03.303Z,3.85
2023-03-11T16:45:04.175Z,4.04
2023-03-11T16:48:04.311Z,3.85
2023-03-11T16:51:04.315Z,4.07
2023-03-11T16:54:04.273Z,4.06
2023-03-11T16:57:04.291Z,3.95
2023-03-11T17:00:04.318Z,4.05
2023-03-11T17:03:04.312Z,4.12
2023-03-11T17:06:04.311Z,3.98
2023-03-11T17:09:04.330Z,4.01
2023-03-11T17:11:57.276Z,4.14
2023-03-11T17:14:43.326Z,4.11
2023-03-11T17:17:43.303Z,4.09
2023-03-11T17:20:43.303Z,4.08
2023-03-11T17:23:36.381Z,3.99
2023-03-11T17:26:38.274Z,4.11
2023-03-11T17:29:38.290Z,4.12
2023-03-11T17:32:38.315Z,4.09
2023-03-11T17:35:38.352Z,4.06
2023-03-11T17:38:38.302Z,4.05
2023-03-11T17:41:38.329Z,4.10
2023-03-11T17:44:51.055Z,4.11
2023-03-11T17:47:51.332Z,4.15
2023-03-11T17:50:52.316Z,4.11
2023-03-11T17:53:53.315Z,3.97
2023-03-11T17:56:53.275Z,4.14
2023-03-11T17:59:53.298Z,4.01
2023-03-11T18:02:53.282Z,4.11
2023-03-11T18:05:53.277Z,4.12
2023-03-11T18:08:53.318Z,4.11
2023-03-11T18:11:53.266Z,4.05
2023-03-11T18:14:53.301Z,4.06
2023-03-11T18:17:53.361Z,3.91
2023-03-11T18:20:53.289Z,3.94
2023-03-11T18:23:53.275Z,3.96
2023-03-11T18:26:53.310Z,3.93
2023-03-11T18:29:53.271Z,3.89
2023-03-11T18:32:53.395Z,3.87
2023-03-11T18:35:53.356Z,3.80
2023-03-11T18:38:53.279Z,3.79
2023-03-11T18:41:53.305Z,3.81
2023-03-11T18:44:54.263Z,3.77
2023-03-11T18:47:54.305Z,3.68
2023-03-11T18:50:54.273Z,3.63
2023-03-11T18:53:54.282Z,3.54
2023-03-11T18:56:54.303Z,3.47
2023-03-11T18:59:54.372Z,3.50
2023-03-11T19:02:54.318Z,3.52
2023-03-11T19:05:59.282Z,3.40
2023-03-11T19:08:59.315Z,3.48
2023-03-11T19:11:59.313Z,3.42
2023-03-11T19:14:59.299Z,3.49
2023-03-11T19:18:06.767Z,3.35
2023-03-11T19:21:14.281Z,3.38
2023-03-11T19:24:14.270Z,3.36
2023-03-11T19:27:14.284Z,3.41
2023-03-11T19:30:14.307Z,3.26
2023-03-11T19:33:14.325Z,3.19
2023-03-11T19:36:17.275Z,3.12
2023-03-11T19:39:17.286Z,3.26
2023-03-11T19:42:17.280Z,3.17
2023-03-11T19:45:17.286Z,3.18
2023-03-11T19:48:17.311Z,3.17
2023-03-11T19:51:18.324Z,3.10
2023-03-11T19:54:18.317Z,2.97
2023-03-11T19:57:18.311Z,3.10
2023-03-11T20:00:18.285Z,2.93
2023-03-11T20:03:18.266Z,2.91
2023-03-11T20:06:22.285Z,3.03
2023-03-11T20:09:22.264Z,3.02
2023-03-11T20:12:22.262Z,3.01
2023-03-11T20:15:22.342Z,3.00
2023-03-11T20:18:22.296Z,2.85
2023-03-11T20:21:24.265Z,3.00
2023-03-11T20:24:24.305Z,2.98
2023-03-11T20:27:24.277Z,3.01
2023-03-11T20:30:26.361Z,2.93
2023-03-11T20:33:26.304Z,3.03
2023-03-11T20:36:29.354Z,3.02
2023-03-11T20:39:29.411Z,3.02
2023-03-11T20:42:29.316Z,3.04
2023-03-11T20:45:30.348Z,2.86
2023-03-11T20:48:30.306Z,3.02
2023-03-11T20:51:32.302Z,3.01
2023-03-11T20:54:32.299Z,3.05
2023-03-11T20:57:32.405Z,2.94
2023-03-11T21:00:32.403Z,2.94
2023-03-11T21:03:32.405Z,3.00
2023-03-11T21:06:37.301Z,2.98
2023-03-11T21:09:37.311Z,2.97
2023-03-11T21:12:37.282Z,2.83
2023-03-11T21:15:37.347Z,2.91
2023-03-11T21:18:37.396Z,2.83
2023-03-11T21:21:37.343Z,2.68
2023-03-11T21:24:37.396Z,2.76
2023-03-11T21:27:37.300Z,2.66
2023-03-11T21:30:37.344Z,2.69
2023-03-11T21:33:37.362Z,2.61
2023-03-11T21:36:37.332Z,2.67
2023-03-11T21:39:37.289Z,2.67
2023-03-11T21:42:37.314Z,2.58
2023-03-11T21:45:37.459Z,2.66
2023-03-11T21:48:37.388Z,2.58
2023-03-11T21:51:37.379Z,2.54
2023-03-11T21:54:37.308Z,2.63
2023-03-11T21:57:37.293Z,2.48
2023-03-11T22:00:37.400Z,2.60
2023-03-11T22:03:37.425Z,2.59
2023-03-11T22:06:40.248Z,2.58
2023-03-11T22:09:40.410Z,2.47
2023-03-11T22:12:40.415Z,2.54
2023-03-11T22:15:40.401Z,2.52
2023-03-11T22:18:40.240Z,2.57
2023-03-11T22:21:40.430Z,2.58
2023-03-11T22:24:40.262Z,2.53
2023-03-11T22:27:40.274Z,2.60
2023-03-11T22:30:40.263Z,2.48
2023-03-11T22:33:41.274Z,2.39
2023-03-11T22:36:41.254Z,2.35
2023-03-11T22:39:41.302Z,2.17
2023-03-11T22:42:41.286Z,2.16
2023-03-11T22:45:41.295Z,2.17
2023-03-11T22:48:41.268Z,1.98
2023-03-11T22:51:41.257Z,2.13
2023-03-11T22:54:41.275Z,2.13
2023-03-11T22:57:45.280Z,2.10
2023-03-11T23:00:45.303Z,2.11
2023-03-11T23:03:46.356Z,2.13
2023-03-11T23:06:46.309Z,2.14
2023-03-11T23:09:46.301Z,2.14
2023-03-11T23:12:46.280Z,2.06
2023-03-11T23:15:46.299Z,2.15
2023-03-11T23:18:46.281Z,2.16
2023-03-11T23:21:46.217Z,2.08
2023-03-11T23:24:46.269Z,2.13
2023-03-11T23:27:46.275Z,2.02
2023-03-11T23:30:46.298Z,1.94
2023-03-11T23:33:46.304Z,2.09
2023-03-11T23:36:46.285Z,1.96
2023-03-11T23:39:46.308Z,2.01
2023-03-11T23:42:47.294Z,2.06
2023-03-11T23:45:47.313Z,2.07
2023-03-11T23:48:47.270Z,1.96
2023-03-11T23:51:47.284Z,2.02
2023-03-11T23:54:47.299Z,1.98
2023-03-11T23:57:50.277Z,1.96
